METAR Reports - Misc

 

KGRB - Green Bay, Wisconsin, USA
Updated: 10/02/2022 3:53pm
Clear
Clear
 Wind from ENE
Wind: ENE 9 mph , 15 km/h
Temperature: 66°F , 19°C
Dew Point: 52°F , 11°C
Humidity: 60%
Barometer: 30.41 inHg , 1029.8 hPa
Clouds: Clear
Visibility: 10 miles , 16 km
2022/10/02 19:53 KGRB 021953Z AUTO 06008KT 10SM CLR 19/11 A3041 RMK AO2 SLP297 T01890106
KMCD - Mackinac Island, Michigan, USA
Updated: 10/02/2022 4:15pm
Clear
Clear
 Wind from ESE
Wind: ESE 6 mph , 9 km/h
Temperature: 52°F , 11°C
Dew Point: 39°F , 4°C
Humidity: 62%
Barometer: 30.44 inHg , 1030.8 hPa
Clouds: Clear
Visibility: 10 miles , 16 km
2022/10/02 20:15 KMCD 022015Z AUTO 11005KT 10SM CLR 11/04 A3044 RMK AO2 T01100041
 
K06C - Schaumburg, Illinois, USA
Updated: 10/02/2022 4:15pm
Clear
Clear
 Wind from NNE
Wind: NNE 7 mph , 11 km/h
Temperature: 64°F , 18°C
Dew Point: 54°F , 12°C
Humidity: 68%
Barometer: 30.35 inHg , 1027.8 hPa
Clouds: Clear
Visibility: 10 miles , 16 km
2022/10/02 20:15 K06C 022015Z AUTO 02006KT 10SM CLR 18/12 A3035 RMK AO2 T01800121
KCLE - Cleveland, OH, USA
Updated: 10/02/2022 3:51pm
Overcast
Overcast
 Wind from NNE
Wind: NNE 21 mph , 33 km/h, Gust: 26 mph , 43 km/h
Temperature: 57°F , 14°C
Dew Point: 45°F , 7°C
Humidity: 63%
Barometer: 30.25 inHg , 1024.4 hPa
Clouds: Overcast
Visibility: 10 miles , 16 km
Cloud details: Overcast 2200 ft
2022/10/02 19:51 KCLE 021951Z 03018G23KT 10SM OVC022 14/07 A3025 RMK AO2 PK WND 04028/1930 SLP260 T01390072 $
 
KMMU - Morristown, New Jersey, USA
Updated: 10/02/2022 3:45pm
Overcast
Overcast
 Wind from NE
Wind: NE 15 mph , 24 km/h, Gust: 25 mph , 41 km/h
Temperature: 57°F , 14°C
Dew Point: 45°F , 7°C
Humidity: 63%
Barometer: 30.13 inHg , 1020.3 hPa
Clouds: Overcast
Visibility: 10 miles , 16 km
Cloud details: Mostly cloudy 3700 ft
Mostly cloudy 4400 ft
Overcast 5500 ft
2022/10/02 19:45 KMMU 021945Z 05013G22KT 10SM BKN037 BKN044 OVC055 14/07 A3013
KSDF - Louisville, Kentucky, USA
Updated: 10/02/2022 3:56pm
Few Clouds
Few Clouds
 Wind from NE
Wind: NE 15 mph , 24 km/h, Gust: 23 mph , 37 km/h
Temperature: 75°F , 24°C
Dew Point: 50°F , 10°C
Humidity: 41%
Barometer: 30.15 inHg , 1021 hPa
Clouds: Few Clouds
Visibility: 10 miles , 16 km
Cloud details: Few Clouds 5500 ft
2022/10/02 19:56 KSDF 021956Z 04013G20KT 10SM FEW055 24/10 A3015 RMK AO2 SLP208 T02390100 $